Time;durP1;ratioP1;P1;durP2;ratioP2;P2;SDS_P1;SDS_P2;PMS_P1;PMS_P2;Temp;Humidity;BMP_temperature;BMP_pressure;BME280_temperature;BME280_humidity;BME280_pressure;Samples;Min_cycle;Max_cycle;Signal;HPM_P1;HPM_P2
2021/08/03 00:01:05;;;;;;;;;9.00;8.00;;;;;19.46;89.32;101033.28;5049445;28;45703;-66
2021/08/03 00:03:36;;;;;;;;;8.75;6.75;;;;;19.52;88.70;101024.16;5058979;28;45385;-65
2021/08/03 00:06:11;;;;;;;;;9.25;7.00;;;;;19.53;88.12;101017.94;5057114;28;45495;-65
2021/08/03 00:08:42;;;;;;;;;6.75;6.75;;;;;19.54;88.20;101017.88;5052555;28;45170;-65
2021/08/03 00:11:10;;;;;;;;;10.25;9.00;;;;;19.54;87.93;101017.88;5052428;28;45575;-65
2021/08/03 00:13:37;;;;;;;;;7.25;7.00;;;;;19.52;87.80;101022.38;5053435;28;45509;-65
2021/08/03 00:16:11;;;;;;;;;8.00;6.00;;;;;19.50;87.51;101021.63;5049683;28;46234;-64
2021/08/03 00:18:41;;;;;;;;;6.75;6.75;;;;;19.48;87.69;101026.16;5051018;28;45234;-67
2021/08/03 00:21:08;;;;;;;;;10.25;9.25;;;;;19.45;88.00;101023.69;5056850;28;45473;-68
2021/08/03 00:23:36;;;;;;;;;8.00;8.00;;;;;19.36;87.59;101019.81;5054951;28;45378;-72
2021/08/03 00:26:02;;;;;;;;;13.25;12.25;;;;;19.31;87.44;101016.59;5053138;28;45263;-71
2021/08/03 00:28:28;;;;;;;;;10.50;8.25;;;;;19.23;88.57;101008.31;5049918;28;45324;-71
2021/08/03 00:30:53;;;;;;;;;7.00;7.00;;;;;19.18;88.73;101014.78;5050399;28;45302;-72
2021/08/03 00:33:19;;;;;;;;;12.25;11.00;;;;;19.14;88.96;101008.84;5049007;28;45427;-70
2021/08/03 00:35:50;;;;;;;;;10.00;10.00;;;;;19.09;88.27;101011.75;5052828;28;46098;-70
2021/08/03 00:38:17;;;;;;;;;9.00;9.00;;;;;19.05;89.39;101004.13;5055112;28;46157;-69
2021/08/03 00:41:01;;;;;;;;;9.50;9.50;;;;;19.07;89.77;101008.38;5057664;28;45267;-69
2021/08/03 00:43:26;;;;;;;;;14.50;12.50;;;;;19.09;90.24;101003.00;5052640;28;45681;-69
2021/08/03 00:45:52;;;;;;;;;14.00;13.75;;;;;19.10;88.99;100996.78;5054770;28;46135;-70
2021/08/03 00:48:17;;;;;;;;;15.25;10.50;;;;;19.10;89.11;100992.38;5050155;28;45446;-70
2021/08/03 00:50:43;;;;;;;;;12.50;11.00;;;;;19.11;89.16;100988.78;5052767;28;45438;-70
2021/08/03 00:53:09;;;;;;;;;14.00;12.75;;;;;19.11;89.60;100987.94;5057401;28;45501;-70
2021/08/03 00:55:37;;;;;;;;;9.00;9.00;;;;;19.10;89.82;100983.63;5057939;28;46134;-70
2021/08/03 00:58:03;;;;;;;;;12.25;12.25;;;;;19.10;89.89;100979.19;5057312;28;45379;-70
2021/08/03 01:00:28;;;;;;;;;12.75;10.50;;;;;19.11;89.42;100988.78;5059039;28;45322;-70
2021/08/03 01:02:54;;;;;;;;;11.00;10.25;;;;;19.09;89.57;100990.69;5058169;28;45425;-70
2021/08/03 01:05:19;;;;;;;;;15.50;13.25;;;;;19.06;89.41;100984.75;5060773;28;45548;-70
2021/08/03 01:08:16;;;;;;;;;13.50;13.00;;;;;19.10;90.49;100997.66;5059569;28;45376;-67
2021/08/03 01:10:49;;;;;;;;;15.50;12.25;;;;;19.14;89.83;100983.34;5062252;28;45274;-67
2021/08/03 01:13:36;;;;;;;;;16.25;13.25;;;;;19.18;89.92;100985.78;5063273;28;45493;-66
2021/08/03 01:16:18;;;;;;;;;14.25;13.00;;;;;19.19;89.79;100984.84;5062816;28;46177;-66
2021/08/03 01:18:58;;;;;;;;;17.00;13.50;;;;;19.20;89.83;100978.63;5063246;28;45306;-66
2021/08/03 01:22:02;;;;;;;;;13.50;13.00;;;;;19.18;88.97;100983.16;5063083;28;45345;-67
2021/08/03 01:24:45;;;;;;;;;17.25;14.00;;;;;19.12;89.23;100974.69;5020812;28;45408;-67
2021/08/03 01:27:28;;;;;;;;;18.50;13.25;;;;;19.08;89.50;100981.09;5059934;28;46398;-67
2021/08/03 01:29:57;;;;;;;;;15.25;13.75;;;;;19.10;90.14;100973.94;5063285;28;45290;-67
2021/08/03 01:32:27;;;;;;;;;15.25;14.25;;;;;19.15;89.73;100960.47;5062994;28;45247;-67
2021/08/03 01:34:54;;;;;;;;;19.50;14.50;;;;;19.19;90.35;100966.41;5062941;28;45294;-67
2021/08/03 01:37:23;;;;;;;;;16.75;14.50;;;;;19.23;90.70;100962.69;5062801;28;45398;-69
2021/08/03 01:39:53;;;;;;;;;11.75;10.00;;;;;19.27;90.21;100962.38;5062952;28;45386;-67
2021/08/03 01:42:21;;;;;;;;;15.00;13.25;;;;;19.30;89.76;100961.34;5063446;28;45380;-69
2021/08/03 01:44:47;;;;;;;;;17.50;15.00;;;;;19.30;89.94;100954.28;5063799;28;45151;-69
2021/08/03 01:47:18;;;;;;;;;16.50;14.50;;;;;19.27;89.51;100957.13;5062282;28;46457;-68
2021/08/03 01:49:45;;;;;;;;;18.00;14.00;;;;;19.24;90.02;100953.81;5061882;28;45515;-68
2021/08/03 01:52:11;;;;;;;;;13.75;12.50;;;;;19.25;89.57;100961.63;5062870;28;45421;-68
2021/08/03 01:54:37;;;;;;;;;13.50;13.50;;;;;19.27;89.76;100954.47;5062692;28;45236;-68
2021/08/03 01:57:04;;;;;;;;;15.75;14.00;;;;;19.28;90.25;100953.53;5062447;28;46373;-68
2021/08/03 01:59:30;;;;;;;;;12.75;12.00;;;;;19.29;89.61;100955.25;5062739;28;45352;-68
2021/08/03 02:01:58;;;;;;;;;12.25;11.00;;;;;19.27;89.97;100951.84;5063022;28;45321;-67
2021/08/03 02:04:24;;;;;;;;;15.00;11.50;;;;;19.28;89.93;100947.44;5062558;28;45577;-68
2021/08/03 02:06:51;;;;;;;;;15.50;12.25;;;;;19.25;89.59;100959.00;5061953;28;45341;-68
2021/08/03 02:09:20;;;;;;;;;13.75;12.75;;;;;19.20;90.29;100954.94;5077632;27;45994;-68
2021/08/03 02:11:46;;;;;;;;;10.50;9.75;;;;;19.21;90.15;100956.63;5062323;28;45331;-68
2021/08/03 02:14:13;;;;;;;;;14.00;14.00;;;;;19.19;90.05;100948.81;5062215;28;45546;-66
2021/08/03 02:16:38;;;;;;;;;15.75;11.25;;;;;19.18;89.66;100951.53;5062424;28;45458;-66
2021/08/03 02:19:04;;;;;;;;;18.50;15.75;;;;;19.17;90.52;100958.59;5060747;28;45264;-68
2021/08/03 02:21:30;;;;;;;;;16.50;13.50;;;;;19.12;89.71;100966.78;5062035;28;45304;-68
2021/08/03 02:23:56;;;;;;;;;16.25;14.75;;;;;19.06;90.27;100969.78;5060960;28;45572;-68
2021/08/03 02:26:22;;;;;;;;;18.50;14.25;;;;;19.02;90.50;100963.00;5062389;28;45224;-68
2021/08/03 02:28:47;;;;;;;;;19.25;14.75;;;;;19.01;90.21;100961.28;5061991;28;45257;-69
2021/08/03 02:31:19;;;;;;;;;14.25;13.75;;;;;19.01;90.22;100968.34;5062136;27;45295;-69
2021/08/03 02:33:52;;;;;;;;;17.50;14.75;;;;;18.98;89.90;100966.75;5061912;28;45161;-69
2021/08/03 02:36:20;;;;;;;;;13.50;13.25;;;;;18.92;90.27;100966.25;5062044;28;46545;-69
2021/08/03 02:38:50;;;;;;;;;15.50;13.25;;;;;18.91;90.30;100968.03;5061971;28;45271;-69
2021/08/03 02:41:17;;;;;;;;;18.25;16.25;;;;;18.88;90.90;100967.38;5062178;28;45451;-68
2021/08/03 02:43:45;;;;;;;;;19.75;14.25;;;;;18.89;91.41;100962.03;5062072;28;45367;-68
2021/08/03 02:46:12;;;;;;;;;16.50;15.00;;;;;18.95;91.15;100968.72;5061453;28;45351;-67
2021/08/03 02:48:40;;;;;;;;;19.50;17.00;;;;;18.82;91.11;100932.59;5061596;28;45270;-65
2021/08/03 02:51:06;;;;;;;;;20.50;19.00;;;;;19.04;91.50;100962.91;5062085;28;45381;-66
2021/08/03 02:53:37;;;;;;;;;20.25;18.00;;;;;19.03;91.07;100962.06;5061762;28;45401;-66
2021/08/03 02:56:13;;;;;;;;;18.50;15.75;;;;;19.02;91.39;100955.09;5061788;28;47064;-67
2021/08/03 02:58:41;;;;;;;;;19.25;17.00;;;;;19.00;91.27;100953.47;5061501;28;45684;-68
2021/08/03 03:01:11;;;;;;;;;19.75;17.50;;;;;18.95;91.49;100950.28;5061691;28;45378;-69
2021/08/03 03:03:42;;;;;;;;;16.75;16.75;;;;;18.90;91.15;100950.56;5061312;28;45283;-69
2021/08/03 03:06:11;;;;;;;;;18.25;16.25;;;;;18.87;91.78;100949.88;5061547;28;45332;-68
2021/08/03 03:08:40;;;;;;;;;22.25;20.00;;;;;18.80;91.17;100947.59;5061519;28;45188;-67
2021/08/03 03:11:07;;;;;;;;;21.25;20.00;;;;;18.79;91.75;100945.06;5061434;28;45341;-67
2021/08/03 03:13:47;;;;;;;;;15.75;15.50;;;;;18.78;91.89;100941.56;5061162;28;45304;-66
2021/08/03 03:16:15;;;;;;;;;23.25;21.25;;;;;18.79;91.97;100945.06;5060060;28;46544;-65
2021/08/03 03:18:42;;;;;;;;;21.25;18.75;;;;;18.80;92.07;100936.22;5060793;28;45711;-65
2021/08/03 03:21:08;;;;;;;;;26.00;21.25;;;;;18.78;92.07;100927.56;5060163;28;45333;-64
2021/08/03 03:23:35;;;;;;;;;24.50;22.25;;;;;18.81;92.09;100928.22;5061426;28;45387;-64
2021/08/03 03:26:03;;;;;;;;;22.25;18.75;;;;;18.82;93.19;100935.22;5061119;28;46355;-64
2021/08/03 03:28:33;;;;;;;;;29.00;23.25;;;;;18.77;93.66;100929.34;5061401;28;45165;-64
2021/08/03 03:31:00;;;;;;;;;23.50;19.75;;;;;18.69;93.99;100928.13;5060956;28;45330;-64
2021/08/03 03:33:28;;;;;;;;;22.75;19.75;;;;;18.63;93.79;100926.69;5060228;28;45330;-67
2021/08/03 03:35:57;;;;;;;;;25.00;20.00;;;;;18.58;93.92;100933.94;5060508;28;45519;-69
2021/08/03 03:38:27;;;;;;;;;24.00;22.00;;;;;18.55;93.79;100927.09;5061164;28;45846;-69
2021/08/03 03:40:53;;;;;;;;;21.75;19.25;;;;;18.52;93.67;100926.41;5061245;28;45241;-69
2021/08/03 03:43:20;;;;;;;;;22.75;19.75;;;;;18.45;93.59;100928.56;5061189;28;45267;-69
2021/08/03 03:45:52;;;;;;;;;20.50;18.25;;;;;18.40;93.33;100927.94;5060585;28;46367;-67
2021/08/03 03:48:20;;;;;;;;;19.75;17.00;;;;;18.40;92.71;100922.69;5060799;28;45421;-67
2021/08/03 03:50:55;;;;;;;;;14.75;13.25;;;;;18.36;92.96;100946.63;5061162;28;45316;-68
2021/08/03 03:53:22;;;;;;;;;14.50;12.75;;;;;18.30;93.61;100942.59;5060664;28;45442;-68
2021/08/03 03:55:54;;;;;;;;;17.50;13.00;;;;;18.35;93.12;100944.94;5060882;28;46455;-67
2021/08/03 03:58:20;;;;;;;;;20.75;16.25;;;;;18.32;93.26;100950.38;5060625;28;45749;-68
2021/08/03 04:00:48;;;;;;;;;18.75;17.75;;;;;18.28;93.59;100954.97;5060843;28;45464;-67
2021/08/03 04:03:17;;;;;;;;;21.75;17.75;;;;;18.26;93.69;100956.84;5061076;28;45330;-68
2021/08/03 04:05:44;;;;;;;;;25.25;21.00;;;;;18.26;93.92;100946.31;5060689;28;46064;-68
2021/08/03 04:08:10;;;;;;;;;15.25;13.25;;;;;18.29;93.23;100950.56;5060403;28;45337;-68
2021/08/03 04:10:37;;;;;;;;;11.00;10.75;;;;;18.28;92.76;100949.72;5060919;28;45410;-69
2021/08/03 04:13:03;;;;;;;;;16.50;13.00;;;;;18.16;93.91;100943.34;5060388;28;45540;-69
2021/08/03 04:15:31;;;;;;;;;18.75;17.75;;;;;18.10;94.48;100953.38;5060550;28;46604;-68
2021/08/03 04:17:57;;;;;;;;;22.75;22.50;;;;;18.04;94.63;100941.41;5060177;28;45359;-68
2021/08/03 04:20:24;;;;;;;;;9.75;7.50;;;;;17.97;93.77;100940.03;5059440;28;45419;-69
2021/08/03 04:22:49;;;;;;;;;11.25;10.75;;;;;18.01;92.66;100949.44;5060134;28;45329;-68
2021/08/03 04:25:15;;;;;;;;;9.25;6.25;;;;;18.00;92.82;100939.84;5060303;28;46176;-67
2021/08/03 04:27:40;;;;;;;;;5.25;4.50;;;;;18.04;93.07;100945.81;5059183;28;46328;-65
2021/08/03 04:30:08;;;;;;;;;5.00;3.75;;;;;18.07;91.89;100948.28;5060517;28;45446;-65
2021/08/03 04:32:34;;;;;;;;;2.50;2.50;;;;;18.04;90.15;100951.09;5059910;28;45259;-65
2021/08/03 04:34:59;;;;;;;;;2.00;2.00;;;;;17.98;91.00;100948.78;5059854;28;46584;-65
2021/08/03 04:37:24;;;;;;;;;3.25;2.00;;;;;17.98;90.45;100947.00;5059956;28;45230;-66
2021/08/03 04:39:50;;;;;;;;;2.50;2.50;;;;;17.99;91.26;100937.31;5060359;28;45207;-66
2021/08/03 04:42:15;;;;;;;;;5.50;4.00;;;;;18.03;91.37;100938.88;5060238;28;45568;-68
2021/08/03 04:44:40;;;;;;;;;5.00;4.50;;;;;18.05;91.56;100942.25;5059843;28;47055;-63
2021/08/03 04:47:06;;;;;;;;;6.25;4.00;;;;;18.08;90.89;100944.72;5059417;28;45457;-64
2021/08/03 04:49:31;;;;;;;;;8.25;3.25;;;;;18.08;90.62;100935.03;5060101;28;45493;-66
2021/08/03 04:51:57;;;;;;;;;7.25;5.00;;;;;18.10;90.52;100937.59;5059888;28;45438;-64
2021/08/03 04:54:23;;;;;;;;;7.00;5.75;;;;;18.10;90.98;100945.47;5059156;28;45408;-63
2021/08/03 04:56:48;;;;;;;;;7.25;7.25;;;;;18.11;91.40;100948.03;5057148;28;45385;-62
2021/08/03 04:59:13;;;;;;;;;7.25;6.00;;;;;18.12;90.86;100938.34;5057492;28;45402;-67
2021/08/03 05:01:39;;;;;;;;;7.25;7.00;;;;;18.09;90.94;100938.53;5056758;28;45490;-67
2021/08/03 05:04:04;;;;;;;;;9.50;7.00;;;;;18.09;91.35;100933.25;5057202;28;45434;-66
2021/08/03 05:06:30;;;;;;;;;8.00;6.25;;;;;18.07;91.16;100930.72;5056810;28;45654;-66
2021/08/03 05:08:55;;;;;;;;;6.00;6.00;;;;;18.03;90.71;100925.72;5057656;28;45452;-67
2021/08/03 05:11:20;;;;;;;;;10.00;8.50;;;;;17.95;90.96;100923.50;5058189;28;45492;-66
2021/08/03 05:13:46;;;;;;;;;6.75;6.00;;;;;17.89;91.11;100927.31;5058603;28;46104;-65
2021/08/03 05:16:11;;;;;;;;;7.00;6.50;;;;;17.90;91.48;100933.44;5057941;28;45470;-64
2021/08/03 05:18:36;;;;;;;;;6.00;5.75;;;;;17.91;91.38;100930.72;5058977;28;45432;-64
2021/08/03 05:21:02;;;;;;;;;10.25;8.25;;;;;17.96;91.62;100926.97;5058176;28;45382;-64
2021/08/03 05:23:27;;;;;;;;;7.00;7.00;;;;;18.00;91.66;100931.13;5058696;28;45959;-64
2021/08/03 05:25:52;;;;;;;;;7.00;7.00;;;;;18.02;91.22;100924.00;5058078;28;45284;-66
2021/08/03 05:28:18;;;;;;;;;5.50;5.50;;;;;18.08;90.99;100928.94;5058859;28;45408;-65
2021/08/03 05:30:47;;;;;;;;;6.75;6.75;;;;;18.11;90.91;100939.28;5057729;28;45432;-65
2021/08/03 05:33:14;;;;;;;;;5.25;5.00;;;;;18.13;91.12;100940.03;5058741;28;45466;-65
2021/08/03 05:35:41;;;;;;;;;6.75;6.75;;;;;18.13;90.63;100950.56;5058337;28;45288;-67
2021/08/03 05:38:07;;;;;;;;;8.50;8.00;;;;;18.12;90.06;100948.88;5058708;28;45316;-67
2021/08/03 05:40:32;;;;;;;;;5.50;5.50;;;;;18.09;89.56;100943.78;5057330;28;45465;-66
2021/08/03 05:42:57;;;;;;;;;7.00;7.00;;;;;18.06;90.72;100944.81;5069653;28;46468;-66
2021/08/03 05:45:23;;;;;;;;;5.00;5.00;;;;;18.05;90.64;100948.38;5057966;28;45382;-66
2021/08/03 05:47:49;;;;;;;;;9.00;5.00;;;;;18.03;90.67;100949.38;5059011;28;45472;-66
2021/08/03 05:50:14;;;;;;;;;4.50;4.50;;;;;17.99;90.47;100953.94;5059052;28;45452;-67
2021/08/03 05:52:40;;;;;;;;;7.25;5.00;;;;;18.01;90.89;100952.06;5058890;28;46103;-67
2021/08/03 05:55:05;;;;;;;;;6.00;6.00;;;;;18.06;90.75;100957.94;5059227;28;45304;-67
2021/08/03 05:57:31;;;;;;;;;6.00;4.00;;;;;18.08;90.67;100953.44;5062910;28;45271;-67
2021/08/03 05:59:56;;;;;;;;;7.25;5.25;;;;;18.12;90.57;100959.38;5062199;28;46060;-67
2021/08/03 06:02:22;;;;;;;;;7.00;5.50;;;;;18.17;90.34;100973.13;5060830;28;47067;-66
2021/08/03 06:04:47;;;;;;;;;8.00;6.25;;;;;18.20;90.17;100973.81;5062079;28;45355;-66
2021/08/03 06:07:15;;;;;;;;;6.00;6.00;;;;;18.21;90.45;100974.66;5062490;28;45214;-66
2021/08/03 06:09:42;;;;;;;;;6.50;6.50;;;;;18.23;90.75;100972.81;5062106;28;45255;-67
2021/08/03 06:12:09;;;;;;;;;7.25;4.50;;;;;18.22;89.77;100971.97;5061593;28;46198;-66
2021/08/03 06:14:36;;;;;;;;;5.00;3.75;;;;;18.24;90.30;100970.09;5062033;28;45663;-67
2021/08/03 06:17:07;;;;;;;;;3.00;3.00;;;;;18.23;89.79;100964.91;5062319;28;45235;-67
2021/08/03 06:19:47;;;;;;;;;7.00;4.50;;;;;18.23;90.26;100972.81;5061880;28;45338;-66
2021/08/03 06:22:13;;;;;;;;;4.50;3.00;;;;;18.29;89.75;100964.56;5060733;28;46051;-66
2021/08/03 06:24:41;;;;;;;;;3.25;3.00;;;;;18.33;89.72;100968.72;5061584;28;45769;-66
2021/08/03 06:27:14;;;;;;;;;6.00;4.00;;;;;18.38;89.27;100968.44;5062239;28;45334;-66
2021/08/03 06:29:40;;;;;;;;;6.00;6.00;;;;;18.49;89.15;100977.44;5049637;28;45265;-66
2021/08/03 06:32:07;;;;;;;;;3.50;3.50;;;;;18.54;89.41;100980.66;5061478;28;46101;-66
2021/08/03 06:34:36;;;;;;;;;3.75;3.75;;;;;18.72;89.79;100975.31;5061857;28;45722;-65
2021/08/03 06:37:01;;;;;;;;;4.25;3.75;;;;;18.79;87.89;100979.28;5061974;28;45252;-67
2021/08/03 06:39:26;;;;;;;;;8.75;6.50;;;;;18.80;87.35;100975.72;5060681;28;45413;-67
2021/08/03 06:41:57;;;;;;;;;3.25;3.25;;;;;18.82;88.43;100981.72;5061449;28;45384;-65
2021/08/03 06:44:31;;;;;;;;;3.00;2.75;;;;;18.91;87.69;100978.59;5061782;28;45359;-69
2021/08/03 06:46:59;;;;;;;;;6.75;6.00;;;;;19.00;87.48;100985.94;5058079;28;45469;-68
2021/08/03 06:49:30;;;;;;;;;5.00;4.00;;;;;19.12;87.92;100989.66;5050885;28;45220;-68
2021/08/03 06:51:57;;;;;;;;;3.00;3.00;;;;;19.18;84.40;100991.06;5061589;28;45592;-73
2021/08/03 06:54:28;;;;;;;;;4.75;4.75;;;;;19.20;88.26;100989.19;5060300;28;45547;-68
2021/08/03 06:56:58;;;;;;;;;4.00;4.00;;;;;19.20;86.70;100997.09;5061446;28;45257;-69
2021/08/03 06:59:29;;;;;;;;;5.00;5.00;;;;;19.19;87.47;100988.34;5061639;28;45532;-69
2021/08/03 07:02:13;;;;;;;;;7.00;4.25;;;;;19.25;87.47;101000.31;5060938;28;45384;-69
2021/08/03 07:04:50;;;;;;;;;7.00;5.25;;;;;19.28;86.81;101002.78;5061275;28;45649;-68
2021/08/03 07:07:18;;;;;;;;;10.00;6.75;;;;;19.29;87.23;100994.78;5058844;28;45570;-69
2021/08/03 07:09:44;;;;;;;;;2.75;2.75;;;;;19.33;87.33;101009.44;5061442;28;45253;-68
2021/08/03 07:12:11;;;;;;;;;7.00;6.25;;;;;19.30;87.16;101000.88;5060787;28;45267;-67
2021/08/03 07:14:37;;;;;;;;;5.50;5.50;;;;;19.31;86.66;101005.22;5061006;28;45418;-70
2021/08/03 07:17:05;;;;;;;;;6.75;5.25;;;;;19.37;87.20;101002.19;5059968;28;45305;-69
2021/08/03 07:19:31;;;;;;;;;5.25;4.50;;;;;19.37;84.74;101010.09;5061034;28;45397;-69
2021/08/03 07:21:57;;;;;;;;;6.00;5.00;;;;;19.31;85.82;100998.16;5061280;28;46285;-70
2021/08/03 07:24:23;;;;;;;;;3.75;3.75;;;;;19.33;84.96;101005.97;5061144;28;45456;-73
2021/08/03 07:26:48;;;;;;;;;3.75;3.75;;;;;19.37;85.96;101005.69;5061292;28;45337;-72
2021/08/03 07:29:14;;;;;;;;;7.00;5.50;;;;;19.42;86.06;100993.09;5060852;28;45292;-71
2021/08/03 07:31:42;;;;;;;;;6.00;6.00;;;;;19.54;85.67;101001.22;5061321;28;45437;-70
2021/08/03 07:34:08;;;;;;;;;11.75;6.00;;;;;19.66;85.42;101003.97;5060921;28;45428;-70
2021/08/03 07:36:34;;;;;;;;;10.50;8.00;;;;;19.88;86.07;101008.78;5061085;28;45396;-71
2021/08/03 07:39:04;;;;;;;;;7.75;6.75;;;;;20.07;84.72;101016.41;5060954;28;45431;-70
2021/08/03 07:41:30;;;;;;;;;24.75;20.00;;;;;20.22;83.12;101012.78;5060810;28;47050;-70
2021/08/03 07:43:56;;;;;;;;;4.50;3.25;;;;;20.58;82.93;101012.25;5061333;28;45600;-70
2021/08/03 07:46:21;;;;;;;;;5.50;4.25;;;;;20.74;82.73;101009.44;5061106;28;45425;-71
2021/08/03 07:48:50;;;;;;;;;3.25;2.75;;;;;20.85;79.34;101008.75;5060520;28;45410;-71
2021/08/03 07:51:20;;;;;;;;;4.75;3.00;;;;;20.88;81.32;101012.03;5060668;28;45409;-72
2021/08/03 07:53:46;;;;;;;;;6.50;5.00;;;;;21.02;81.87;100999.69;5060524;28;45422;-72
2021/08/03 07:56:15;;;;;;;;;2.75;2.75;;;;;21.07;79.57;101001.09;5061231;28;45312;-71
2021/08/03 07:58:41;;;;;;;;;5.50;5.25;;;;;21.25;82.47;101002.53;5060433;28;45298;-69
2021/08/03 08:01:07;;;;;;;;;5.75;5.00;;;;;21.39;80.79;100992.78;5060477;28;46152;-73
2021/08/03 08:03:33;;;;;;;;;5.25;4.75;;;;;21.57;81.09;101002.09;5059675;28;45336;-73
2021/08/03 08:06:00;;;;;;;;;10.25;9.75;;;;;21.67;74.40;101010.25;5060732;28;45310;-76
2021/08/03 08:08:25;;;;;;;;;4.25;3.25;;;;;21.59;79.19;101009.94;5060408;28;45253;-76
2021/08/03 08:10:51;;;;;;;;;7.00;5.25;;;;;21.49;80.78;101000.00;5060453;28;46148;-72
2021/08/03 08:13:16;;;;;;;;;12.25;10.50;;;;;21.35;72.51;101007.19;5061063;28;45233;-74
2021/08/03 08:15:42;;;;;;;;;7.75;6.00;;;;;21.31;76.18;101006.56;5060171;28;45241;-68
2021/08/03 08:18:08;;;;;;;;;11.00;8.50;;;;;21.33;76.22;101007.28;5059514;28;45309;-72
2021/08/03 08:20:38;;;;;;;;;3.50;3.00;;;;;21.36;76.53;101003.59;5060764;28;46325;-73
2021/08/03 08:23:04;;;;;;;;;4.00;4.00;;;;;21.42;77.79;100998.72;5060335;28;45286;-68
2021/08/03 08:25:30;;;;;;;;;4.00;4.00;;;;;21.63;78.82;100996.41;5060478;28;45274;-70
2021/08/03 08:27:55;;;;;;;;;6.25;6.25;;;;;21.76;76.88;100980.50;5057718;28;45244;-70
2021/08/03 08:30:21;;;;;;;;;5.25;5.00;;;;;21.80;78.26;100987.28;5059488;28;45983;-68
2021/08/03 08:32:47;;;;;;;;;4.00;3.00;;;;;21.89;73.35;101002.53;5058917;28;45349;-68
2021/08/03 08:35:12;;;;;;;;;4.25;4.00;;;;;21.82;73.29;100990.66;5060823;28;45428;-66
2021/08/03 08:37:38;;;;;;;;;4.50;3.00;;;;;21.81;75.78;100981.03;5060023;28;45161;-69
2021/08/03 08:40:06;;;;;;;;;5.25;4.00;;;;;21.99;75.33;100992.94;5059969;28;46048;-75
2021/08/03 08:42:32;;;;;;;;;3.75;3.75;;;;;22.12;74.49;100991.16;5060074;28;45379;-76
2021/08/03 08:44:59;;;;;;;;;5.75;3.75;;;;;22.31;74.42;100997.78;5059249;28;45292;-73
2021/08/03 08:47:24;;;;;;;;;4.50;4.00;;;;;22.50;76.43;100992.00;5059014;28;45691;-75
2021/08/03 08:49:50;;;;;;;;;4.00;4.00;;;;;22.70;74.53;101001.97;5060661;28;46236;-76
2021/08/03 08:52:16;;;;;;;;;4.50;3.00;;;;;22.71;70.76;100993.91;5059637;28;45245;-69
2021/08/03 08:54:42;;;;;;;;;22.50;16.00;;;;;22.75;73.88;101000.66;5059787;28;45309;-74
2021/08/03 08:57:08;;;;;;;;;9.50;5.75;;;;;22.90;71.56;100979.31;5059881;28;45188;-67
2021/08/03 08:59:34;;;;;;;;;8.75;5.00;;;;;22.91;62.54;100989.81;5059847;28;46586;-71
2021/08/03 09:01:59;;;;;;;;;7.75;4.00;;;;;22.91;69.90;100988.97;5058233;28;45550;-71
2021/08/03 09:04:25;;;;;;;;;16.75;9.50;;;;;22.96;69.21;100994.75;5057255;28;45322;-71
2021/08/03 09:07:07;;;;;;;;;4.75;4.25;;;;;23.05;64.76;100994.91;5059394;28;45421;-71
2021/08/03 09:09:40;;;;;;;;;5.00;3.75;;;;;23.05;66.08;100994.06;5059456;28;45259;-70
2021/08/03 09:12:06;;;;;;;;;3.00;2.75;;;;;23.09;68.20;100992.03;5059322;28;45242;-69
2021/08/03 09:14:37;;;;;;;;;5.50;4.00;;;;;23.12;60.57;100995.28;5059368;28;45239;-69
2021/08/03 09:17:03;;;;;;;;;4.00;3.00;;;;;23.14;68.63;100992.53;5056996;28;45411;-68
2021/08/03 09:19:41;;;;;;;;;9.75;6.25;;;;;23.17;68.73;100993.13;5053194;28;46168;-68
2021/08/03 09:22:28;;;;;;;;;2.50;2.50;;;;;23.32;66.51;100994.63;5058290;28;45299;-68
2021/08/03 09:25:14;;;;;;;;;7.25;5.75;;;;;23.43;60.31;100988.50;5059231;28;45306;-69
2021/08/03 09:27:48;;;;;;;;;4.00;3.25;;;;;23.29;61.71;100989.53;5056283;28;45806;-65
2021/08/03 09:30:19;;;;;;;;;6.25;5.25;;;;;23.13;60.79;100986.38;5057071;28;46097;-65
2021/08/03 09:32:46;;;;;;;;;5.00;5.00;;;;;23.10;60.74;100997.22;5060640;28;45779;-65
2021/08/03 09:35:17;;;;;;;;;4.50;3.50;;;;;23.05;62.35;100994.91;5060978;28;45611;-65
2021/08/03 09:37:43;;;;;;;;;7.50;5.00;;;;;23.05;62.10;100994.06;5061930;28;45430;-65
2021/08/03 09:40:31;;;;;;;;;8.50;5.50;;;;;23.22;59.67;100998.06;5062633;28;46362;-65
2021/08/03 09:43:07;;;;;;;;;6.50;4.00;;;;;23.34;57.97;100999.78;5059970;28;45687;-65
2021/08/03 09:45:54;;;;;;;;;5.00;3.25;;;;;23.32;58.53;100997.25;5060142;28;45427;-65
2021/08/03 09:48:21;;;;;;;;;13.25;9.00;;;;;23.29;61.62;100992.19;5061000;28;45592;-64
2021/08/03 09:50:55;;;;;;;;;5.50;5.50;;;;;23.16;60.18;100995.91;5061975;28;46043;-65
2021/08/03 09:53:53;;;;;;;;;9.75;7.50;;;;;22.74;63.70;100998.13;5061898;28;45267;-64
2021/08/03 09:56:34;;;;;;;;;5.00;5.00;;;;;22.48;63.77;100992.13;5054254;28;45367;-65
2021/08/03 09:59:09;;;;;;;;;8.50;7.75;;;;;22.23;66.28;100986.91;5061391;28;45461;-64
2021/08/03 10:01:39;;;;;;;;;7.75;5.75;;;;;22.22;68.54;100987.84;5061863;28;46405;-64
2021/08/03 10:04:12;;;;;;;;;6.25;6.00;;;;;22.33;69.10;101002.00;5062089;28;45564;-65
2021/08/03 10:06:40;;;;;;;;;7.00;7.00;;;;;22.44;68.64;100993.31;5062288;28;45370;-65
2021/08/03 10:09:07;;;;;;;;;5.25;5.25;;;;;22.48;65.93;100993.91;5062417;28;45550;-65
2021/08/03 10:11:33;;;;;;;;;6.50;5.00;;;;;22.37;64.31;100992.88;5061609;28;45224;-64
2021/08/03 10:13:59;;;;;;;;;8.00;7.00;;;;;22.41;65.71;100988.19;5061806;28;45713;-65
2021/08/03 10:16:26;;;;;;;;;7.50;5.50;;;;;22.45;62.38;100985.25;5061798;28;45503;-65
2021/08/03 10:18:55;;;;;;;;;6.25;6.25;;;;;22.54;65.12;100986.34;5058341;28;45487;-65
2021/08/03 10:21:38;;;;;;;;;8.25;5.00;;;;;22.71;64.85;100983.31;5056527;28;45592;-65
2021/08/03 10:24:25;;;;;;;;;6.00;5.00;;;;;22.98;64.83;100983.06;5062001;28;45797;-64
2021/08/03 10:27:11;;;;;;;;;8.00;5.50;;;;;23.17;60.67;100990.47;5061657;28;45188;-63
2021/08/03 10:29:45;;;;;;;;;7.75;7.75;;;;;23.38;64.15;100993.28;5049959;28;45595;-64
2021/08/03 10:32:40;;;;;;;;;7.50;6.00;;;;;23.80;60.11;100986.47;5060601;28;45528;-64
2021/08/03 10:35:15;;;;;;;;;8.25;6.00;;;;;24.07;60.78;100990.56;5061495;28;45209;-64
2021/08/03 10:37:59;;;;;;;;;4.25;4.00;;;;;24.19;58.18;100982.44;5050015;28;45227;-64
2021/08/03 10:41:03;;;;;;;;;5.25;5.00;;;;;24.31;61.58;100978.00;5061427;28;45255;-64
2021/08/03 10:43:35;;;;;;;;;6.50;5.50;;;;;24.44;56.65;100981.34;5060562;28;45418;-64
2021/08/03 10:46:06;;;;;;;;;5.75;5.75;;;;;24.53;58.86;100977.94;5060890;28;45497;-64
2021/08/03 10:48:37;;;;;;;;;5.50;4.50;;;;;24.67;56.80;100981.28;5060068;28;45286;-64
2021/08/03 10:51:18;;;;;;;;;10.00;8.75;;;;;24.62;56.06;100981.63;5061282;28;45459;-67
2021/08/03 10:54:08;;;;;;;;;5.00;5.00;;;;;24.35;58.46;100976.78;5060015;28;46011;-68
2021/08/03 10:56:52;;;;;;;;;3.00;3.00;;;;;24.21;53.36;100977.00;5060898;28;45248;-67
2021/08/03 10:59:39;;;;;;;;;6.25;6.00;;;;;23.97;58.86;100978.00;5058475;28;45285;-67
2021/08/03 11:02:09;;;;;;;;;5.00;4.00;;;;;23.93;54.75;100986.34;5051989;28;45470;-66
2021/08/03 11:04:47;;;;;;;;;6.00;6.00;;;;;23.79;58.47;100990.09;5051729;28;45522;-64
2021/08/03 11:07:27;;;;;;;;;10.75;9.00;;;;;23.73;57.21;100998.53;5052627;28;45426;-64
2021/08/03 11:10:01;;;;;;;;;5.50;5.50;;;;;23.70;58.86;100980.22;5060644;28;45415;-66
2021/08/03 11:12:44;;;;;;;;;7.00;5.00;;;;;23.84;56.44;100979.13;5060357;28;45465;-65
2021/08/03 11:15:22;;;;;;;;;8.50;6.00;;;;;23.91;58.51;100986.47;5048975;28;46209;-64
2021/08/03 11:17:57;;;;;;;;;5.50;5.25;;;;;23.89;59.88;100991.06;5060707;28;45513;-62
2021/08/03 11:20:35;;;;;;;;;2.50;2.00;;;;;23.95;58.23;100992.38;5060525;28;45477;-64
2021/08/03 11:23:14;;;;;;;;;7.50;5.00;;;;;24.01;59.00;100991.03;5060531;28;45311;-64
2021/08/03 11:25:42;;;;;;;;;7.00;6.00;;;;;23.96;55.06;100989.59;5060129;28;46098;-63
2021/08/03 11:28:14;;;;;;;;;5.00;5.00;;;;;23.99;56.65;100985.84;5060589;28;45611;-62
2021/08/03 11:30:41;;;;;;;;;7.25;6.50;;;;;24.14;59.28;100981.13;5058452;28;45383;-60